Terminal Aerodrome Forecast
Issued by NWS

Home | Current Version | Previous Version | Text Only | Print | Product List | Glossary On
Versions: 1 2 3 4 5 6 7 8 9 10 11 12 13
789
FTUS45 KRIW 270538
TAFLND
TAF
KLND 270538Z 2706/2806 24007KT P6SM VCSH SCT050 OVC070
     FM271100 29010G15KT P6SM VCSH BKN050
     FM271700 31011KT 5SM -SHRASN OVC025
     FM272200 34007KT P6SM VCSH SCT025 BKN040=

USA.gov is the U.S. government's official web portal to all federal, state and local government web resources and services.